Terminal Aerodrome Forecast
Issued by NWS Birmingham, AL

Home | Current Version | Previous Version | Text Only | Print | Product List | Glossary On
Versions: 1 2 3 4 5 6 7 8 9 10 11 12 13
697
FTUS44 KBMX 172340
TAFBHM
TAF
KBHM 172340Z 1800/1824 33011KT P6SM SKC
     FM180400 34003KT P6SM SKC
     FM181530 33006KT P6SM SKC=

USA.gov is the U.S. government's official web portal to all federal, state and local government web resources and services.